sensor_id;sensor_type;location;lat;lon;timestamp;P1;durP1;ratioP1;P2;durP2;ratioP2
47259;SDS011;32999;52.412;4.890;2023-04-05T00:04:38;7.55;;;3.88;;
47259;SDS011;32999;52.412;4.890;2023-04-05T00:10:21;6.43;;;3.38;;
47259;SDS011;32999;52.412;4.890;2023-04-05T00:27:28;7.53;;;3.30;;
47259;SDS011;32999;52.412;4.890;2023-04-05T00:38:38;8.05;;;3.47;;
47259;SDS011;32999;52.412;4.890;2023-04-05T02:09:28;9.23;;;5.15;;
47259;SDS011;32999;52.412;4.890;2023-04-05T02:15:27;10.02;;;4.80;;
47259;SDS011;32999;52.412;4.890;2023-04-05T03:16:18;17.08;;;6.80;;
47259;SDS011;32999;52.412;4.890;2023-04-05T03:27:44;13.75;;;6.82;;
47259;SDS011;32999;52.412;4.890;2023-04-05T03:32:56;13.23;;;6.30;;
47259;SDS011;32999;52.412;4.890;2023-04-05T03:38:05;11.85;;;6.88;;
47259;SDS011;32999;52.412;4.890;2023-04-05T03:43:07;12.30;;;6.50;;
47259;SDS011;32999;52.412;4.890;2023-04-05T03:54:03;14.40;;;6.18;;
47259;SDS011;32999;52.412;4.890;2023-04-05T03:59:05;11.15;;;6.07;;
47259;SDS011;32999;52.412;4.890;2023-04-05T04:04:13;11.15;;;6.15;;
47259;SDS011;32999;52.412;4.890;2023-04-05T04:09:19;14.05;;;6.40;;
47259;SDS011;32999;52.412;4.890;2023-04-05T04:14:22;10.63;;;6.43;;
47259;SDS011;32999;52.412;4.890;2023-04-05T04:19:27;11.82;;;7.35;;
47259;SDS011;32999;52.412;4.890;2023-04-05T04:24:30;11.40;;;6.53;;
47259;SDS011;32999;52.412;4.890;2023-04-05T04:29:34;14.20;;;6.72;;
47259;SDS011;32999;52.412;4.890;2023-04-05T04:34:44;10.85;;;6.38;;
47259;SDS011;32999;52.412;4.890;2023-04-05T04:39:48;13.90;;;7.03;;
47259;SDS011;32999;52.412;4.890;2023-04-05T04:44:53;13.52;;;7.13;;
47259;SDS011;32999;52.412;4.890;2023-04-05T04:50:43;16.27;;;8.55;;
47259;SDS011;32999;52.412;4.890;2023-04-05T04:56:06;13.23;;;6.63;;
47259;SDS011;32999;52.412;4.890;2023-04-05T05:01:12;10.55;;;6.25;;
47259;SDS011;32999;52.412;4.890;2023-04-05T05:06:17;12.15;;;6.55;;
47259;SDS011;32999;52.412;4.890;2023-04-05T05:11:23;14.27;;;8.43;;
47259;SDS011;32999;52.412;4.890;2023-04-05T05:16:27;13.45;;;6.90;;
47259;SDS011;32999;52.412;4.890;2023-04-05T05:21:29;14.20;;;6.95;;
47259;SDS011;32999;52.412;4.890;2023-04-05T05:26:33;9.35;;;6.22;;
47259;SDS011;32999;52.412;4.890;2023-04-05T05:31:37;15.25;;;7.60;;
47259;SDS011;32999;52.412;4.890;2023-04-05T05:36:46;10.10;;;6.18;;
47259;SDS011;32999;52.412;4.890;2023-04-05T05:41:51;10.82;;;6.53;;
47259;SDS011;32999;52.412;4.890;2023-04-05T05:47:08;13.60;;;7.85;;
47259;SDS011;32999;52.412;4.890;2023-04-05T05:52:45;13.05;;;7.10;;
47259;SDS011;32999;52.412;4.890;2023-04-05T07:16:47;9.85;;;5.50;;
47259;SDS011;32999;52.412;4.890;2023-04-05T07:22:08;10.15;;;5.05;;
47259;SDS011;32999;52.412;4.890;2023-04-05T07:38:47;6.68;;;3.70;;
47259;SDS011;32999;52.412;4.890;2023-04-05T07:44:00;7.32;;;4.38;;
47259;SDS011;32999;52.412;4.890;2023-04-05T07:49:38;8.00;;;4.07;;
47259;SDS011;32999;52.412;4.890;2023-04-05T07:54:51;7.22;;;3.85;;
47259;SDS011;32999;52.412;4.890;2023-04-05T07:59:53;7.50;;;4.35;;
47259;SDS011;32999;52.412;4.890;2023-04-05T08:04:56;13.02;;;5.07;;
47259;SDS011;32999;52.412;4.890;2023-04-05T08:09:59;6.75;;;3.72;;
47259;SDS011;32999;52.412;4.890;2023-04-05T08:15:05;8.38;;;3.40;;
47259;SDS011;32999;52.412;4.890;2023-04-05T08:20:11;8.80;;;4.40;;
47259;SDS011;32999;52.412;4.890;2023-04-05T08:25:15;7.75;;;4.25;;
47259;SDS011;32999;52.412;4.890;2023-04-05T08:30:17;9.48;;;4.10;;
47259;SDS011;32999;52.412;4.890;2023-04-05T08:35:20;8.70;;;4.20;;
47259;SDS011;32999;52.412;4.890;2023-04-05T08:40:30;5.47;;;3.70;;
47259;SDS011;32999;52.412;4.890;2023-04-05T08:45:42;8.10;;;4.30;;
47259;SDS011;32999;52.412;4.890;2023-04-05T08:50:50;9.00;;;3.97;;
47259;SDS011;32999;52.412;4.890;2023-04-05T08:55:56;8.70;;;4.57;;
47259;SDS011;32999;52.412;4.890;2023-04-05T09:01:00;7.30;;;4.18;;
47259;SDS011;32999;52.412;4.890;2023-04-05T09:06:03;8.02;;;3.95;;
47259;SDS011;32999;52.412;4.890;2023-04-05T09:11:09;6.10;;;4.00;;
47259;SDS011;32999;52.412;4.890;2023-04-05T09:16:12;7.80;;;4.65;;
47259;SDS011;32999;52.412;4.890;2023-04-05T09:21:15;7.28;;;4.55;;
47259;SDS011;32999;52.412;4.890;2023-04-05T09:26:22;13.95;;;4.90;;
47259;SDS011;32999;52.412;4.890;2023-04-05T09:31:34;8.82;;;4.20;;
47259;SDS011;32999;52.412;4.890;2023-04-05T09:36:42;7.22;;;4.07;;
47259;SDS011;32999;52.412;4.890;2023-04-05T09:42:18;9.35;;;4.18;;
47259;SDS011;32999;52.412;4.890;2023-04-05T09:47:22;8.38;;;4.15;;
47259;SDS011;32999;52.412;4.890;2023-04-05T09:52:30;9.70;;;4.55;;
47259;SDS011;32999;52.412;4.890;2023-04-05T09:57:35;7.93;;;4.63;;
47259;SDS011;32999;52.412;4.890;2023-04-05T10:02:38;8.75;;;3.58;;
47259;SDS011;32999;52.412;4.890;2023-04-05T10:07:40;5.38;;;3.38;;
47259;SDS011;32999;52.412;4.890;2023-04-05T10:12:44;6.10;;;3.13;;
47259;SDS011;32999;52.412;4.890;2023-04-05T10:17:51;6.10;;;3.72;;
47259;SDS011;32999;52.412;4.890;2023-04-05T10:23:05;9.07;;;3.20;;
47259;SDS011;32999;52.412;4.890;2023-04-05T10:28:11;6.72;;;3.50;;
47259;SDS011;32999;52.412;4.890;2023-04-05T10:33:19;6.70;;;3.60;;
47259;SDS011;32999;52.412;4.890;2023-04-05T10:38:23;8.37;;;3.67;;
47259;SDS011;32999;52.412;4.890;2023-04-05T10:48:35;7.47;;;3.50;;
47259;SDS011;32999;52.412;4.890;2023-04-05T10:53:40;5.68;;;3.50;;
47259;SDS011;32999;52.412;4.890;2023-04-05T10:58:45;5.13;;;3.42;;
47259;SDS011;32999;52.412;4.890;2023-04-05T11:08:52;7.78;;;4.53;;
47259;SDS011;32999;52.412;4.890;2023-04-05T11:13:56;7.18;;;3.78;;
47259;SDS011;32999;52.412;4.890;2023-04-05T11:18:58;11.00;;;3.85;;
47259;SDS011;32999;52.412;4.890;2023-04-05T11:24:06;8.23;;;4.07;;
47259;SDS011;32999;52.412;4.890;2023-04-05T11:29:13;6.13;;;3.70;;
47259;SDS011;32999;52.412;4.890;2023-04-05T11:34:15;7.68;;;3.72;;
47259;SDS011;32999;52.412;4.890;2023-04-05T11:39:24;8.23;;;4.10;;
47259;SDS011;32999;52.412;4.890;2023-04-05T11:44:28;8.52;;;4.75;;
47259;SDS011;32999;52.412;4.890;2023-04-05T11:49:39;5.47;;;3.58;;
47259;SDS011;32999;52.412;4.890;2023-04-05T11:54:41;9.75;;;3.90;;
47259;SDS011;32999;52.412;4.890;2023-04-05T11:59:49;8.57;;;4.45;;
47259;SDS011;32999;52.412;4.890;2023-04-05T12:04:52;6.53;;;3.70;;
47259;SDS011;32999;52.412;4.890;2023-04-05T12:10:00;6.53;;;4.07;;
47259;SDS011;32999;52.412;4.890;2023-04-05T12:15:06;7.00;;;3.80;;
47259;SDS011;32999;52.412;4.890;2023-04-05T12:20:10;9.07;;;4.22;;
47259;SDS011;32999;52.412;4.890;2023-04-05T12:25:12;8.63;;;3.63;;
47259;SDS011;32999;52.412;4.890;2023-04-05T12:30:17;7.75;;;4.07;;
47259;SDS011;32999;52.412;4.890;2023-04-05T12:35:21;6.22;;;3.65;;
47259;SDS011;32999;52.412;4.890;2023-04-05T12:40:26;5.43;;;3.50;;
47259;SDS011;32999;52.412;4.890;2023-04-05T12:45:31;7.57;;;4.30;;
47259;SDS011;32999;52.412;4.890;2023-04-05T12:50:41;7.55;;;3.95;;
47259;SDS011;32999;52.412;4.890;2023-04-05T12:55:46;7.18;;;3.90;;
47259;SDS011;32999;52.412;4.890;2023-04-05T13:00:51;8.68;;;4.35;;
47259;SDS011;32999;52.412;4.890;2023-04-05T13:05:52;6.50;;;3.95;;
47259;SDS011;32999;52.412;4.890;2023-04-05T13:10:54;11.48;;;5.00;;
47259;SDS011;32999;52.412;4.890;2023-04-05T13:15:57;9.07;;;4.22;;
47259;SDS011;32999;52.412;4.890;2023-04-05T13:20:59;6.70;;;4.10;;
47259;SDS011;32999;52.412;4.890;2023-04-05T13:26:07;6.13;;;4.10;;
47259;SDS011;32999;52.412;4.890;2023-04-05T13:31:10;10.73;;;4.13;;
47259;SDS011;32999;52.412;4.890;2023-04-05T13:36:11;7.18;;;3.85;;
47259;SDS011;32999;52.412;4.890;2023-04-05T13:41:13;7.78;;;4.47;;
47259;SDS011;32999;52.412;4.890;2023-04-05T13:46:16;8.48;;;4.53;;
47259;SDS011;32999;52.412;4.890;2023-04-05T13:51:18;8.02;;;4.10;;
47259;SDS011;32999;52.412;4.890;2023-04-05T13:56:20;15.30;;;4.82;;
47259;SDS011;32999;52.412;4.890;2023-04-05T14:01:23;7.50;;;4.07;;
47259;SDS011;32999;52.412;4.890;2023-04-05T14:06:24;7.53;;;3.97;;
47259;SDS011;32999;52.412;4.890;2023-04-05T14:11:27;7.70;;;4.43;;
47259;SDS011;32999;52.412;4.890;2023-04-05T14:16:30;9.02;;;4.45;;
47259;SDS011;32999;52.412;4.890;2023-04-05T14:21:32;6.32;;;3.85;;
47259;SDS011;32999;52.412;4.890;2023-04-05T14:26:36;9.63;;;4.80;;
47259;SDS011;32999;52.412;4.890;2023-04-05T14:31:39;7.13;;;3.58;;
47259;SDS011;32999;52.412;4.890;2023-04-05T14:36:41;7.45;;;4.03;;
47259;SDS011;32999;52.412;4.890;2023-04-05T14:41:42;6.47;;;4.07;;
47259;SDS011;32999;52.412;4.890;2023-04-05T14:46:50;10.30;;;4.47;;
47259;SDS011;32999;52.412;4.890;2023-04-05T14:51:52;6.40;;;4.03;;
47259;SDS011;32999;52.412;4.890;2023-04-05T14:56:54;7.43;;;3.95;;
47259;SDS011;32999;52.412;4.890;2023-04-05T15:01:57;11.50;;;4.78;;
47259;SDS011;32999;52.412;4.890;2023-04-05T15:06:59;7.95;;;3.88;;
47259;SDS011;32999;52.412;4.890;2023-04-05T15:12:01;8.63;;;4.05;;
47259;SDS011;32999;52.412;4.890;2023-04-05T15:17:04;6.85;;;3.70;;
47259;SDS011;32999;52.412;4.890;2023-04-05T15:22:06;8.75;;;4.70;;
47259;SDS011;32999;52.412;4.890;2023-04-05T15:27:08;8.25;;;4.88;;
47259;SDS011;32999;52.412;4.890;2023-04-05T15:32:12;7.35;;;4.45;;
47259;SDS011;32999;52.412;4.890;2023-04-05T15:37:14;7.03;;;4.35;;
47259;SDS011;32999;52.412;4.890;2023-04-05T15:42:15;11.77;;;6.43;;
47259;SDS011;32999;52.412;4.890;2023-04-05T15:47:19;7.93;;;4.60;;
47259;SDS011;32999;52.412;4.890;2023-04-05T15:52:20;8.07;;;4.38;;
47259;SDS011;32999;52.412;4.890;2023-04-05T15:57:22;7.70;;;4.53;;
47259;SDS011;32999;52.412;4.890;2023-04-05T16:02:26;8.88;;;5.22;;
47259;SDS011;32999;52.412;4.890;2023-04-05T16:07:30;8.85;;;5.50;;
47259;SDS011;32999;52.412;4.890;2023-04-05T16:12:32;12.95;;;5.32;;
47259;SDS011;32999;52.412;4.890;2023-04-05T16:17:35;7.88;;;4.45;;
47259;SDS011;32999;52.412;4.890;2023-04-05T16:22:37;15.13;;;6.72;;
47259;SDS011;32999;52.412;4.890;2023-04-05T16:27:39;9.02;;;5.72;;
47259;SDS011;32999;52.412;4.890;2023-04-05T16:32:44;9.90;;;5.28;;
47259;SDS011;32999;52.412;4.890;2023-04-05T16:37:45;9.77;;;5.95;;
47259;SDS011;32999;52.412;4.890;2023-04-05T16:42:47;11.32;;;6.88;;
47259;SDS011;32999;52.412;4.890;2023-04-05T16:47:51;8.68;;;5.63;;
47259;SDS011;32999;52.412;4.890;2023-04-05T16:58:24;9.65;;;5.10;;
47259;SDS011;32999;52.412;4.890;2023-04-05T17:03:44;12.75;;;4.97;;
47259;SDS011;32999;52.412;4.890;2023-04-05T17:08:49;16.83;;;8.70;;
47259;SDS011;32999;52.412;4.890;2023-04-05T17:14:02;12.77;;;6.75;;
47259;SDS011;32999;52.412;4.890;2023-04-05T17:24:24;12.70;;;5.88;;
47259;SDS011;32999;52.412;4.890;2023-04-05T17:36:26;12.70;;;5.72;;
47259;SDS011;32999;52.412;4.890;2023-04-05T17:41:34;12.75;;;5.88;;
47259;SDS011;32999;52.412;4.890;2023-04-05T18:08:12;10.23;;;5.30;;
47259;SDS011;32999;52.412;4.890;2023-04-05T18:18:32;17.95;;;7.97;;
47259;SDS011;32999;52.412;4.890;2023-04-05T18:28:47;17.10;;;8.93;;
47259;SDS011;32999;52.412;4.890;2023-04-05T18:33:57;20.35;;;9.85;;
47259;SDS011;32999;52.412;4.890;2023-04-05T18:39:00;24.58;;;10.32;;
47259;SDS011;32999;52.412;4.890;2023-04-05T18:44:08;24.52;;;11.40;;
47259;SDS011;32999;52.412;4.890;2023-04-05T18:49:10;25.27;;;12.38;;
47259;SDS011;32999;52.412;4.890;2023-04-05T18:54:14;24.35;;;11.30;;
47259;SDS011;32999;52.412;4.890;2023-04-05T18:59:19;25.17;;;11.48;;
47259;SDS011;32999;52.412;4.890;2023-04-05T19:04:23;30.23;;;13.23;;
47259;SDS011;32999;52.412;4.890;2023-04-05T19:10:08;28.77;;;12.77;;
47259;SDS011;32999;52.412;4.890;2023-04-05T19:15:23;31.58;;;12.95;;
47259;SDS011;32999;52.412;4.890;2023-04-05T19:20:30;26.25;;;13.18;;
47259;SDS011;32999;52.412;4.890;2023-04-05T19:25:45;29.65;;;14.52;;
47259;SDS011;32999;52.412;4.890;2023-04-05T19:30:59;30.15;;;12.18;;
47259;SDS011;32999;52.412;4.890;2023-04-05T19:36:20;28.70;;;12.50;;
47259;SDS011;32999;52.412;4.890;2023-04-05T19:47:58;30.42;;;13.65;;
47259;SDS011;32999;52.412;4.890;2023-04-05T20:29:26;29.25;;;13.48;;
47259;SDS011;32999;52.412;4.890;2023-04-05T20:47:41;32.33;;;12.85;;
47259;SDS011;32999;52.412;4.890;2023-04-05T20:53:11;40.78;;;19.50;;
47259;SDS011;32999;52.412;4.890;2023-04-05T20:58:38;30.60;;;13.75;;
47259;SDS011;32999;52.412;4.890;2023-04-05T21:04:25;29.50;;;13.98;;
47259;SDS011;32999;52.412;4.890;2023-04-05T21:34:01;29.73;;;13.10;;
47259;SDS011;32999;52.412;4.890;2023-04-05T21:39:03;30.15;;;14.05;;
47259;SDS011;32999;52.412;4.890;2023-04-05T21:44:10;28.45;;;14.18;;
47259;SDS011;32999;52.412;4.890;2023-04-05T21:49:36;28.67;;;13.40;;
47259;SDS011;32999;52.412;4.890;2023-04-05T21:54:48;25.48;;;12.68;;
47259;SDS011;32999;52.412;4.890;2023-04-05T22:03:16;40.25;;;18.98;;
